sensor_id;sensor_type;location;lat;lon;timestamp;P1;durP1;ratioP1;P2;durP2;ratioP2
3712;SDS011;1872;51.406;6.856;2023-03-23T00:01:29;4.30;;;3.90;;
3712;SDS011;1872;51.406;6.856;2023-03-23T00:03:56;5.20;;;3.77;;
3712;SDS011;1872;51.406;6.856;2023-03-23T00:06:23;4.40;;;3.43;;
3712;SDS011;1872;51.406;6.856;2023-03-23T00:08:51;6.73;;;4.63;;
3712;SDS011;1872;51.406;6.856;2023-03-23T00:11:24;4.93;;;4.20;;
3712;SDS011;1872;51.406;6.856;2023-03-23T00:13:54;4.87;;;3.70;;
3712;SDS011;1872;51.406;6.856;2023-03-23T00:16:23;3.70;;;3.40;;
3712;SDS011;1872;51.406;6.856;2023-03-23T00:18:58;6.43;;;3.77;;
3712;SDS011;1872;51.406;6.856;2023-03-23T00:21:27;4.23;;;3.87;;
3712;SDS011;1872;51.406;6.856;2023-03-23T00:24:10;4.33;;;3.83;;
3712;SDS011;1872;51.406;6.856;2023-03-23T00:26:44;4.37;;;3.97;;
3712;SDS011;1872;51.406;6.856;2023-03-23T00:29:13;4.10;;;3.70;;
3712;SDS011;1872;51.406;6.856;2023-03-23T00:31:39;6.87;;;3.90;;
3712;SDS011;1872;51.406;6.856;2023-03-23T00:34:06;5.40;;;4.33;;
3712;SDS011;1872;51.406;6.856;2023-03-23T00:36:33;4.17;;;3.43;;
3712;SDS011;1872;51.406;6.856;2023-03-23T00:39:03;4.40;;;3.60;;
3712;SDS011;1872;51.406;6.856;2023-03-23T00:41:30;4.07;;;3.67;;
3712;SDS011;1872;51.406;6.856;2023-03-23T00:43:56;4.13;;;3.57;;
3712;SDS011;1872;51.406;6.856;2023-03-23T00:46:23;4.50;;;4.10;;
3712;SDS011;1872;51.406;6.856;2023-03-23T00:48:49;3.83;;;3.40;;
3712;SDS011;1872;51.406;6.856;2023-03-23T00:51:17;4.50;;;3.77;;
3712;SDS011;1872;51.406;6.856;2023-03-23T00:53:43;3.93;;;3.63;;
3712;SDS011;1872;51.406;6.856;2023-03-23T00:56:10;5.10;;;4.00;;
3712;SDS011;1872;51.406;6.856;2023-03-23T00:58:36;4.10;;;3.70;;
3712;SDS011;1872;51.406;6.856;2023-03-23T01:01:02;4.23;;;3.83;;
3712;SDS011;1872;51.406;6.856;2023-03-23T01:03:29;4.23;;;3.83;;
3712;SDS011;1872;51.406;6.856;2023-03-23T01:05:55;5.17;;;4.07;;
3712;SDS011;1872;51.406;6.856;2023-03-23T01:08:21;4.00;;;3.60;;
3712;SDS011;1872;51.406;6.856;2023-03-23T01:10:48;3.83;;;3.43;;
3712;SDS011;1872;51.406;6.856;2023-03-23T01:13:15;6.07;;;3.93;;
3712;SDS011;1872;51.406;6.856;2023-03-23T01:15:41;3.20;;;2.90;;
3712;SDS011;1872;51.406;6.856;2023-03-23T01:18:07;3.93;;;3.63;;
3712;SDS011;1872;51.406;6.856;2023-03-23T01:20:34;4.53;;;4.13;;
3712;SDS011;1872;51.406;6.856;2023-03-23T01:23:03;3.80;;;3.33;;
3712;SDS011;1872;51.406;6.856;2023-03-23T01:25:30;4.03;;;3.60;;
3712;SDS011;1872;51.406;6.856;2023-03-23T01:27:57;3.93;;;3.63;;
3712;SDS011;1872;51.406;6.856;2023-03-23T01:30:24;3.47;;;3.27;;
3712;SDS011;1872;51.406;6.856;2023-03-23T01:32:50;3.93;;;3.57;;
3712;SDS011;1872;51.406;6.856;2023-03-23T01:35:16;3.73;;;3.23;;
3712;SDS011;1872;51.406;6.856;2023-03-23T01:37:43;3.30;;;3.10;;
3712;SDS011;1872;51.406;6.856;2023-03-23T01:40:09;3.47;;;3.20;;
3712;SDS011;1872;51.406;6.856;2023-03-23T01:42:36;5.70;;;4.10;;
3712;SDS011;1872;51.406;6.856;2023-03-23T01:47:46;3.97;;;3.63;;
3712;SDS011;1872;51.406;6.856;2023-03-23T01:50:16;5.50;;;3.63;;
3712;SDS011;1872;51.406;6.856;2023-03-23T01:52:45;3.87;;;3.50;;
3712;SDS011;1872;51.406;6.856;2023-03-23T01:55:11;5.30;;;4.03;;
3712;SDS011;1872;51.406;6.856;2023-03-23T01:57:37;3.83;;;3.53;;
3712;SDS011;1872;51.406;6.856;2023-03-23T02:00:05;4.87;;;4.07;;
3712;SDS011;1872;51.406;6.856;2023-03-23T02:02:43;3.70;;;3.30;;
3712;SDS011;1872;51.406;6.856;2023-03-23T02:05:14;3.80;;;3.50;;
3712;SDS011;1872;51.406;6.856;2023-03-23T02:07:44;5.80;;;3.50;;
3712;SDS011;1872;51.406;6.856;2023-03-23T02:10:11;3.80;;;3.50;;
3712;SDS011;1872;51.406;6.856;2023-03-23T02:12:37;3.37;;;3.10;;
3712;SDS011;1872;51.406;6.856;2023-03-23T02:15:03;5.20;;;3.50;;
3712;SDS011;1872;51.406;6.856;2023-03-23T02:25:35;4.17;;;3.50;;
3712;SDS011;1872;51.406;6.856;2023-03-23T02:36:20;4.20;;;3.80;;
3712;SDS011;1872;51.406;6.856;2023-03-23T02:44:55;5.20;;;3.53;;
3712;SDS011;1872;51.406;6.856;2023-03-23T02:47:24;4.20;;;3.60;;
3712;SDS011;1872;51.406;6.856;2023-03-23T02:49:53;4.20;;;3.80;;
3712;SDS011;1872;51.406;6.856;2023-03-23T02:52:24;4.07;;;3.77;;
3712;SDS011;1872;51.406;6.856;2023-03-23T02:54:53;4.53;;;4.13;;
3712;SDS011;1872;51.406;6.856;2023-03-23T02:57:22;3.80;;;3.50;;
3712;SDS011;1872;51.406;6.856;2023-03-23T02:59:50;4.47;;;4.03;;
3712;SDS011;1872;51.406;6.856;2023-03-23T03:02:17;4.27;;;3.83;;
3712;SDS011;1872;51.406;6.856;2023-03-23T03:04:53;8.43;;;4.20;;
3712;SDS011;1872;51.406;6.856;2023-03-23T03:07:34;4.60;;;4.20;;
3712;SDS011;1872;51.406;6.856;2023-03-23T03:10:21;4.97;;;3.80;;
3712;SDS011;1872;51.406;6.856;2023-03-23T03:15:33;4.13;;;3.73;;
3712;SDS011;1872;51.406;6.856;2023-03-23T03:20:40;7.13;;;4.30;;
3712;SDS011;1872;51.406;6.856;2023-03-23T03:23:14;4.10;;;3.80;;
3712;SDS011;1872;51.406;6.856;2023-03-23T03:25:42;3.80;;;3.50;;
3712;SDS011;1872;51.406;6.856;2023-03-23T03:28:14;4.10;;;3.53;;
3712;SDS011;1872;51.406;6.856;2023-03-23T03:30:42;6.30;;;3.27;;
3712;SDS011;1872;51.406;6.856;2023-03-23T03:33:09;4.20;;;3.67;;
3712;SDS011;1872;51.406;6.856;2023-03-23T03:35:37;3.10;;;2.90;;
3712;SDS011;1872;51.406;6.856;2023-03-23T03:38:07;3.73;;;3.30;;
3712;SDS011;1872;51.406;6.856;2023-03-23T03:40:34;4.00;;;3.60;;
3712;SDS011;1872;51.406;6.856;2023-03-23T03:43:00;4.50;;;3.70;;
3712;SDS011;1872;51.406;6.856;2023-03-23T03:45:27;4.20;;;3.27;;
3712;SDS011;1872;51.406;6.856;2023-03-23T03:47:52;5.37;;;3.30;;
3712;SDS011;1872;51.406;6.856;2023-03-23T03:50:18;3.50;;;3.20;;
3712;SDS011;1872;51.406;6.856;2023-03-23T03:52:44;4.33;;;3.43;;
3712;SDS011;1872;51.406;6.856;2023-03-23T03:55:10;3.50;;;3.27;;
3712;SDS011;1872;51.406;6.856;2023-03-23T03:57:36;3.13;;;2.93;;
3712;SDS011;1872;51.406;6.856;2023-03-23T04:00:02;4.50;;;3.70;;
3712;SDS011;1872;51.406;6.856;2023-03-23T04:02:45;3.87;;;3.40;;
3712;SDS011;1872;51.406;6.856;2023-03-23T04:05:17;3.53;;;3.23;;
3712;SDS011;1872;51.406;6.856;2023-03-23T04:07:43;4.23;;;3.47;;
3712;SDS011;1872;51.406;6.856;2023-03-23T04:10:11;3.73;;;3.43;;
3712;SDS011;1872;51.406;6.856;2023-03-23T04:12:38;5.60;;;4.20;;
3712;SDS011;1872;51.406;6.856;2023-03-23T04:15:04;5.13;;;3.30;;
3712;SDS011;1872;51.406;6.856;2023-03-23T04:17:31;4.00;;;3.60;;
3712;SDS011;1872;51.406;6.856;2023-03-23T04:19:56;3.97;;;3.50;;
3712;SDS011;1872;51.406;6.856;2023-03-23T04:22:36;3.13;;;2.93;;
3712;SDS011;1872;51.406;6.856;2023-03-23T04:25:02;3.70;;;3.40;;
3712;SDS011;1872;51.406;6.856;2023-03-23T04:27:31;4.17;;;3.77;;
3712;SDS011;1872;51.406;6.856;2023-03-23T04:29:57;4.00;;;3.70;;
3712;SDS011;1872;51.406;6.856;2023-03-23T04:32:26;3.80;;;3.50;;
3712;SDS011;1872;51.406;6.856;2023-03-23T04:34:57;3.77;;;3.47;;
3712;SDS011;1872;51.406;6.856;2023-03-23T04:37:24;3.90;;;3.60;;
3712;SDS011;1872;51.406;6.856;2023-03-23T04:39:53;3.53;;;3.23;;
3712;SDS011;1872;51.406;6.856;2023-03-23T04:42:29;3.90;;;3.27;;
3712;SDS011;1872;51.406;6.856;2023-03-23T04:44:56;3.40;;;3.10;;
3712;SDS011;1872;51.406;6.856;2023-03-23T04:47:23;4.03;;;3.63;;
3712;SDS011;1872;51.406;6.856;2023-03-23T04:49:55;3.20;;;2.90;;
3712;SDS011;1872;51.406;6.856;2023-03-23T04:52:22;3.37;;;3.07;;
3712;SDS011;1872;51.406;6.856;2023-03-23T04:54:51;3.60;;;3.30;;
3712;SDS011;1872;51.406;6.856;2023-03-23T04:57:18;3.60;;;3.30;;
3712;SDS011;1872;51.406;6.856;2023-03-23T04:59:44;3.30;;;3.00;;
3712;SDS011;1872;51.406;6.856;2023-03-23T05:02:10;3.33;;;3.03;;
3712;SDS011;1872;51.406;6.856;2023-03-23T05:04:38;3.47;;;3.17;;
3712;SDS011;1872;51.406;6.856;2023-03-23T05:07:05;4.03;;;3.73;;
3712;SDS011;1872;51.406;6.856;2023-03-23T05:09:35;4.13;;;3.20;;
3712;SDS011;1872;51.406;6.856;2023-03-23T05:12:05;3.10;;;2.90;;
3712;SDS011;1872;51.406;6.856;2023-03-23T05:14:32;3.53;;;3.23;;
3712;SDS011;1872;51.406;6.856;2023-03-23T05:16:58;3.27;;;3.07;;
3712;SDS011;1872;51.406;6.856;2023-03-23T05:19:23;3.47;;;3.17;;
3712;SDS011;1872;51.406;6.856;2023-03-23T05:21:49;3.73;;;3.43;;
3712;SDS011;1872;51.406;6.856;2023-03-23T05:24:14;3.37;;;3.10;;
3712;SDS011;1872;51.406;6.856;2023-03-23T05:26:40;4.27;;;3.93;;
3712;SDS011;1872;51.406;6.856;2023-03-23T05:29:06;3.37;;;3.07;;
3712;SDS011;1872;51.406;6.856;2023-03-23T05:31:31;5.00;;;3.77;;
3712;SDS011;1872;51.406;6.856;2023-03-23T05:33:57;3.50;;;3.30;;
3712;SDS011;1872;51.406;6.856;2023-03-23T05:36:23;3.50;;;3.20;;
3712;SDS011;1872;51.406;6.856;2023-03-23T05:38:52;3.67;;;3.37;;
3712;SDS011;1872;51.406;6.856;2023-03-23T05:41:18;3.20;;;3.00;;
3712;SDS011;1872;51.406;6.856;2023-03-23T05:43:43;3.73;;;3.30;;
3712;SDS011;1872;51.406;6.856;2023-03-23T05:46:11;4.10;;;3.80;;
3712;SDS011;1872;51.406;6.856;2023-03-23T05:48:37;4.17;;;3.77;;
3712;SDS011;1872;51.406;6.856;2023-03-23T05:51:03;4.37;;;3.80;;
3712;SDS011;1872;51.406;6.856;2023-03-23T05:53:29;5.07;;;3.40;;
3712;SDS011;1872;51.406;6.856;2023-03-23T05:55:59;6.00;;;3.70;;
3712;SDS011;1872;51.406;6.856;2023-03-23T05:58:25;5.60;;;4.33;;
3712;SDS011;1872;51.406;6.856;2023-03-23T06:00:52;4.80;;;3.73;;
3712;SDS011;1872;51.406;6.856;2023-03-23T06:03:17;3.80;;;3.40;;
3712;SDS011;1872;51.406;6.856;2023-03-23T06:05:43;3.50;;;3.20;;
3712;SDS011;1872;51.406;6.856;2023-03-23T06:08:10;4.80;;;3.80;;
3712;SDS011;1872;51.406;6.856;2023-03-23T06:10:36;4.77;;;4.00;;
3712;SDS011;1872;51.406;6.856;2023-03-23T06:13:02;3.70;;;3.40;;
3712;SDS011;1872;51.406;6.856;2023-03-23T06:15:30;5.03;;;3.70;;
3712;SDS011;1872;51.406;6.856;2023-03-23T06:18:00;4.07;;;3.77;;
3712;SDS011;1872;51.406;6.856;2023-03-23T06:20:27;4.90;;;3.60;;
3712;SDS011;1872;51.406;6.856;2023-03-23T06:22:54;5.70;;;4.03;;
3712;SDS011;1872;51.406;6.856;2023-03-23T06:25:20;9.77;;;4.43;;
3712;SDS011;1872;51.406;6.856;2023-03-23T06:27:49;4.70;;;3.93;;
3712;SDS011;1872;51.406;6.856;2023-03-23T06:30:17;4.50;;;3.70;;
3712;SDS011;1872;51.406;6.856;2023-03-23T06:32:42;4.10;;;3.70;;
3712;SDS011;1872;51.406;6.856;2023-03-23T06:35:11;4.30;;;3.60;;
3712;SDS011;1872;51.406;6.856;2023-03-23T06:37:37;3.80;;;3.50;;
3712;SDS011;1872;51.406;6.856;2023-03-23T06:40:03;5.93;;;3.60;;
3712;SDS011;1872;51.406;6.856;2023-03-23T06:42:35;5.17;;;3.73;;
3712;SDS011;1872;51.406;6.856;2023-03-23T06:45:02;3.67;;;3.30;;
3712;SDS011;1872;51.406;6.856;2023-03-23T06:47:29;5.63;;;3.57;;
3712;SDS011;1872;51.406;6.856;2023-03-23T06:49:56;4.07;;;3.07;;
3712;SDS011;1872;51.406;6.856;2023-03-23T06:52:22;3.80;;;3.43;;
3712;SDS011;1872;51.406;6.856;2023-03-23T06:54:49;4.13;;;3.83;;
3712;SDS011;1872;51.406;6.856;2023-03-23T06:57:15;6.40;;;3.27;;
3712;SDS011;1872;51.406;6.856;2023-03-23T06:59:42;4.23;;;3.07;;
3712;SDS011;1872;51.406;6.856;2023-03-23T07:02:12;5.90;;;4.20;;
3712;SDS011;1872;51.406;6.856;2023-03-23T07:04:42;4.03;;;3.50;;
3712;SDS011;1872;51.406;6.856;2023-03-23T07:07:08;4.70;;;3.70;;
3712;SDS011;1872;51.406;6.856;2023-03-23T07:09:37;3.57;;;3.27;;
3712;SDS011;1872;51.406;6.856;2023-03-23T07:12:02;3.70;;;2.90;;
3712;SDS011;1872;51.406;6.856;2023-03-23T07:14:28;3.93;;;3.60;;
3712;SDS011;1872;51.406;6.856;2023-03-23T07:16:54;4.70;;;3.20;;
3712;SDS011;1872;51.406;6.856;2023-03-23T07:19:20;3.50;;;3.20;;
3712;SDS011;1872;51.406;6.856;2023-03-23T07:21:46;4.03;;;3.70;;
3712;SDS011;1872;51.406;6.856;2023-03-23T07:24:12;4.37;;;3.50;;
3712;SDS011;1872;51.406;6.856;2023-03-23T07:26:41;3.27;;;3.00;;
3712;SDS011;1872;51.406;6.856;2023-03-23T07:29:08;5.33;;;3.40;;
3712;SDS011;1872;51.406;6.856;2023-03-23T07:31:35;3.63;;;2.80;;
3712;SDS011;1872;51.406;6.856;2023-03-23T07:34:01;4.00;;;2.77;;
3712;SDS011;1872;51.406;6.856;2023-03-23T07:36:27;3.30;;;2.97;;
3712;SDS011;1872;51.406;6.856;2023-03-23T07:38:54;6.00;;;2.87;;
3712;SDS011;1872;51.406;6.856;2023-03-23T07:41:20;6.30;;;3.43;;
3712;SDS011;1872;51.406;6.856;2023-03-23T07:43:46;3.40;;;2.83;;
3712;SDS011;1872;51.406;6.856;2023-03-23T07:46:11;3.30;;;3.10;;
3712;SDS011;1872;51.406;6.856;2023-03-23T07:48:38;2.80;;;2.60;;
3712;SDS011;1872;51.406;6.856;2023-03-23T07:51:04;4.83;;;2.90;;
3712;SDS011;1872;51.406;6.856;2023-03-23T07:53:31;2.87;;;2.60;;
3712;SDS011;1872;51.406;6.856;2023-03-23T07:55:57;5.03;;;3.20;;
3712;SDS011;1872;51.406;6.856;2023-03-23T07:58:23;3.53;;;2.87;;
3712;SDS011;1872;51.406;6.856;2023-03-23T08:00:48;5.40;;;2.87;;
3712;SDS011;1872;51.406;6.856;2023-03-23T08:03:15;3.57;;;2.63;;
3712;SDS011;1872;51.406;6.856;2023-03-23T08:05:41;2.83;;;2.40;;
3712;SDS011;1872;51.406;6.856;2023-03-23T08:08:07;3.37;;;2.73;;
3712;SDS011;1872;51.406;6.856;2023-03-23T08:10:34;6.43;;;3.03;;
3712;SDS011;1872;51.406;6.856;2023-03-23T08:13:00;3.20;;;2.90;;
3712;SDS011;1872;51.406;6.856;2023-03-23T08:15:26;3.20;;;2.63;;
3712;SDS011;1872;51.406;6.856;2023-03-23T08:17:53;4.87;;;2.40;;
3712;SDS011;1872;51.406;6.856;2023-03-23T08:20:19;4.00;;;3.27;;
3712;SDS011;1872;51.406;6.856;2023-03-23T08:22:51;3.50;;;2.50;;
3712;SDS011;1872;51.406;6.856;2023-03-23T08:25:20;3.20;;;2.30;;
3712;SDS011;1872;51.406;6.856;2023-03-23T08:27:46;6.27;;;3.10;;
3712;SDS011;1872;51.406;6.856;2023-03-23T08:30:13;2.80;;;2.53;;
3712;SDS011;1872;51.406;6.856;2023-03-23T08:32:41;2.80;;;2.60;;
3712;SDS011;1872;51.406;6.856;2023-03-23T08:35:08;8.10;;;2.87;;
3712;SDS011;1872;51.406;6.856;2023-03-23T08:37:36;2.20;;;2.10;;
3712;SDS011;1872;51.406;6.856;2023-03-23T08:40:02;4.03;;;2.60;;
3712;SDS011;1872;51.406;6.856;2023-03-23T08:42:34;3.00;;;2.20;;
3712;SDS011;1872;51.406;6.856;2023-03-23T08:45:02;3.90;;;2.57;;
3712;SDS011;1872;51.406;6.856;2023-03-23T08:47:29;4.20;;;2.70;;
3712;SDS011;1872;51.406;6.856;2023-03-23T08:49:56;2.97;;;2.30;;
3712;SDS011;1872;51.406;6.856;2023-03-23T08:52:21;2.97;;;2.50;;
3712;SDS011;1872;51.406;6.856;2023-03-23T08:54:47;3.57;;;2.53;;
3712;SDS011;1872;51.406;6.856;2023-03-23T08:57:13;3.53;;;2.30;;
3712;SDS011;1872;51.406;6.856;2023-03-23T08:59:41;3.70;;;2.73;;
3712;SDS011;1872;51.406;6.856;2023-03-23T09:02:09;2.93;;;2.53;;
3712;SDS011;1872;51.406;6.856;2023-03-23T09:04:37;6.80;;;2.73;;
3712;SDS011;1872;51.406;6.856;2023-03-23T09:07:04;3.27;;;2.60;;
3712;SDS011;1872;51.406;6.856;2023-03-23T09:09:29;4.23;;;2.57;;
3712;SDS011;1872;51.406;6.856;2023-03-23T09:11:56;3.13;;;2.53;;
3712;SDS011;1872;51.406;6.856;2023-03-23T09:14:22;4.20;;;2.80;;
3712;SDS011;1872;51.406;6.856;2023-03-23T09:16:47;3.20;;;2.83;;
3712;SDS011;1872;51.406;6.856;2023-03-23T09:19:14;5.13;;;2.50;;
3712;SDS011;1872;51.406;6.856;2023-03-23T09:21:40;6.20;;;2.50;;
3712;SDS011;1872;51.406;6.856;2023-03-23T09:24:06;4.20;;;3.03;;
3712;SDS011;1872;51.406;6.856;2023-03-23T09:26:32;2.77;;;2.50;;
3712;SDS011;1872;51.406;6.856;2023-03-23T09:28:58;4.67;;;2.90;;
3712;SDS011;1872;51.406;6.856;2023-03-23T09:31:23;5.27;;;2.70;;
3712;SDS011;1872;51.406;6.856;2023-03-23T09:33:53;5.30;;;3.13;;
3712;SDS011;1872;51.406;6.856;2023-03-23T09:36:22;3.00;;;2.60;;
3712;SDS011;1872;51.406;6.856;2023-03-23T09:38:50;2.70;;;2.50;;
3712;SDS011;1872;51.406;6.856;2023-03-23T09:47:20;3.10;;;2.33;;
3712;SDS011;1872;51.406;6.856;2023-03-23T09:52:44;4.20;;;2.20;;
3712;SDS011;1872;51.406;6.856;2023-03-23T09:55:16;2.33;;;2.17;;
3712;SDS011;1872;51.406;6.856;2023-03-23T09:58:02;1.50;;;1.40;;
3712;SDS011;1872;51.406;6.856;2023-03-23T10:03:18;2.30;;;1.80;;
3712;SDS011;1872;51.406;6.856;2023-03-23T10:05:53;2.13;;;1.80;;
3712;SDS011;1872;51.406;6.856;2023-03-23T10:11:03;3.73;;;1.93;;
3712;SDS011;1872;51.406;6.856;2023-03-23T10:16:26;5.33;;;2.47;;
3712;SDS011;1872;51.406;6.856;2023-03-23T10:19:49;2.63;;;2.43;;
3712;SDS011;1872;51.406;6.856;2023-03-23T10:22:07;3.10;;;2.43;;
3712;SDS011;1872;51.406;6.856;2023-03-23T10:24:39;4.97;;;2.60;;
3712;SDS011;1872;51.406;6.856;2023-03-23T10:27:31;5.50;;;2.83;;
3712;SDS011;1872;51.406;6.856;2023-03-23T10:30:14;4.77;;;3.20;;
3712;SDS011;1872;51.406;6.856;2023-03-23T10:35:53;5.23;;;3.80;;
3712;SDS011;1872;51.406;6.856;2023-03-23T10:38:04;8.53;;;3.80;;
3712;SDS011;1872;51.406;6.856;2023-03-23T10:40:43;4.10;;;2.90;;
3712;SDS011;1872;51.406;6.856;2023-03-23T10:43:12;6.10;;;3.80;;
3712;SDS011;1872;51.406;6.856;2023-03-23T10:45:38;4.83;;;3.60;;
3712;SDS011;1872;51.406;6.856;2023-03-23T10:50:38;4.27;;;3.10;;
3712;SDS011;1872;51.406;6.856;2023-03-23T10:53:12;7.43;;;3.50;;
3712;SDS011;1872;51.406;6.856;2023-03-23T10:55:44;3.10;;;2.80;;
3712;SDS011;1872;51.406;6.856;2023-03-23T10:58:12;3.47;;;2.87;;
3712;SDS011;1872;51.406;6.856;2023-03-23T11:00:48;4.70;;;3.40;;
3712;SDS011;1872;51.406;6.856;2023-03-23T11:05:42;5.53;;;4.60;;
3712;SDS011;1872;51.406;6.856;2023-03-23T11:08:16;7.33;;;4.43;;
3712;SDS011;1872;51.406;6.856;2023-03-23T11:10:53;8.43;;;5.27;;
3712;SDS011;1872;51.406;6.856;2023-03-23T11:13:48;5.30;;;4.10;;
3712;SDS011;1872;51.406;6.856;2023-03-23T11:19:21;5.30;;;3.63;;
3712;SDS011;1872;51.406;6.856;2023-03-23T11:21:53;4.17;;;3.63;;
3712;SDS011;1872;51.406;6.856;2023-03-23T11:24:24;3.20;;;2.90;;
3712;SDS011;1872;51.406;6.856;2023-03-23T11:26:51;3.20;;;2.47;;
3712;SDS011;1872;51.406;6.856;2023-03-23T11:29:22;3.10;;;2.87;;
3712;SDS011;1872;51.406;6.856;2023-03-23T11:31:50;3.10;;;2.80;;
3712;SDS011;1872;51.406;6.856;2023-03-23T11:34:20;3.20;;;2.87;;
3712;SDS011;1872;51.406;6.856;2023-03-23T11:36:52;3.50;;;2.93;;
3712;SDS011;1872;51.406;6.856;2023-03-23T11:41:49;3.93;;;2.80;;
3712;SDS011;1872;51.406;6.856;2023-03-23T11:44:15;5.67;;;3.10;;
3712;SDS011;1872;51.406;6.856;2023-03-23T11:49:49;3.30;;;3.00;;
3712;SDS011;1872;51.406;6.856;2023-03-23T11:58:10;4.63;;;3.40;;
3712;SDS011;1872;51.406;6.856;2023-03-23T12:01:00;3.93;;;3.13;;
3712;SDS011;1872;51.406;6.856;2023-03-23T12:24:34;2.93;;;2.63;;
3712;SDS011;1872;51.406;6.856;2023-03-23T12:35:48;3.30;;;2.67;;
3712;SDS011;1872;51.406;6.856;2023-03-23T12:38:42;3.17;;;2.87;;
3712;SDS011;1872;51.406;6.856;2023-03-23T12:41:17;4.30;;;3.50;;
3712;SDS011;1872;51.406;6.856;2023-03-23T12:44:03;3.13;;;2.53;;
3712;SDS011;1872;51.406;6.856;2023-03-23T12:49:27;3.00;;;2.80;;
3712;SDS011;1872;51.406;6.856;2023-03-23T12:57:34;4.43;;;3.20;;
3712;SDS011;1872;51.406;6.856;2023-03-23T13:02:48;4.30;;;3.90;;
3712;SDS011;1872;51.406;6.856;2023-03-23T13:06:08;4.70;;;3.17;;
3712;SDS011;1872;51.406;6.856;2023-03-23T13:08:38;3.33;;;3.03;;
3712;SDS011;1872;51.406;6.856;2023-03-23T13:11:12;2.83;;;2.63;;
3712;SDS011;1872;51.406;6.856;2023-03-23T13:13:48;3.20;;;2.90;;
3712;SDS011;1872;51.406;6.856;2023-03-23T13:16:21;5.10;;;3.70;;
3712;SDS011;1872;51.406;6.856;2023-03-23T13:19:09;4.17;;;2.63;;
3712;SDS011;1872;51.406;6.856;2023-03-23T13:24:18;2.50;;;2.30;;
3712;SDS011;1872;51.406;6.856;2023-03-23T13:26:48;2.67;;;2.47;;
3712;SDS011;1872;51.406;6.856;2023-03-23T13:29:17;4.80;;;3.30;;
3712;SDS011;1872;51.406;6.856;2023-03-23T13:31:45;4.30;;;3.17;;
3712;SDS011;1872;51.406;6.856;2023-03-23T13:36:42;3.30;;;3.00;;
3712;SDS011;1872;51.406;6.856;2023-03-23T13:39:21;4.77;;;2.93;;
3712;SDS011;1872;51.406;6.856;2023-03-23T13:42:03;4.30;;;3.03;;
3712;SDS011;1872;51.406;6.856;2023-03-23T13:54:53;4.93;;;4.43;;
3712;SDS011;1872;51.406;6.856;2023-03-23T13:57:49;4.10;;;2.73;;
3712;SDS011;1872;51.406;6.856;2023-03-23T14:05:38;6.10;;;3.90;;
3712;SDS011;1872;51.406;6.856;2023-03-23T14:13:38;7.53;;;3.93;;
3712;SDS011;1872;51.406;6.856;2023-03-23T14:16:24;5.07;;;4.57;;
3712;SDS011;1872;51.406;6.856;2023-03-23T14:18:59;3.80;;;3.50;;
3712;SDS011;1872;51.406;6.856;2023-03-23T14:21:33;4.40;;;4.00;;
3712;SDS011;1872;51.406;6.856;2023-03-23T14:24:28;5.50;;;4.47;;
3712;SDS011;1872;51.406;6.856;2023-03-23T14:26:53;5.57;;;4.53;;
3712;SDS011;1872;51.406;6.856;2023-03-23T14:29:27;5.40;;;4.80;;
3712;SDS011;1872;51.406;6.856;2023-03-23T14:31:57;7.87;;;4.60;;
3712;SDS011;1872;51.406;6.856;2023-03-23T14:34:25;6.00;;;5.03;;
3712;SDS011;1872;51.406;6.856;2023-03-23T14:36:54;7.03;;;5.27;;
3712;SDS011;1872;51.406;6.856;2023-03-23T14:42:11;6.23;;;4.93;;
3712;SDS011;1872;51.406;6.856;2023-03-23T14:44:49;5.60;;;4.70;;
3712;SDS011;1872;51.406;6.856;2023-03-23T14:47:29;6.17;;;5.17;;
3712;SDS011;1872;51.406;6.856;2023-03-23T14:50:30;6.13;;;5.13;;
3712;SDS011;1872;51.406;6.856;2023-03-23T14:52:59;6.40;;;5.20;;
3712;SDS011;1872;51.406;6.856;2023-03-23T14:55:46;6.40;;;5.10;;
3712;SDS011;1872;51.406;6.856;2023-03-23T14:58:14;6.87;;;5.13;;
3712;SDS011;1872;51.406;6.856;2023-03-23T15:00:42;6.73;;;5.40;;
3712;SDS011;1872;51.406;6.856;2023-03-23T15:03:33;5.67;;;5.13;;
3712;SDS011;1872;51.406;6.856;2023-03-23T15:06:05;8.93;;;4.20;;
3712;SDS011;1872;51.406;6.856;2023-03-23T15:08:36;5.57;;;4.33;;
3712;SDS011;1872;51.406;6.856;2023-03-23T15:11:13;3.33;;;3.00;;
3712;SDS011;1872;51.406;6.856;2023-03-23T15:13:45;3.40;;;2.77;;
3712;SDS011;1872;51.406;6.856;2023-03-23T15:16:26;4.37;;;3.07;;
3712;SDS011;1872;51.406;6.856;2023-03-23T15:18:54;3.47;;;2.53;;
3712;SDS011;1872;51.406;6.856;2023-03-23T15:21:35;3.83;;;3.23;;
3712;SDS011;1872;51.406;6.856;2023-03-23T15:24:44;3.30;;;3.00;;
3712;SDS011;1872;51.406;6.856;2023-03-23T15:29:55;2.97;;;2.67;;
3712;SDS011;1872;51.406;6.856;2023-03-23T15:34:54;3.80;;;3.10;;
3712;SDS011;1872;51.406;6.856;2023-03-23T15:37:28;5.40;;;3.60;;
3712;SDS011;1872;51.406;6.856;2023-03-23T15:39:56;8.13;;;3.47;;
3712;SDS011;1872;51.406;6.856;2023-03-23T15:42:29;3.83;;;3.30;;
3712;SDS011;1872;51.406;6.856;2023-03-23T15:45:20;5.90;;;3.70;;
3712;SDS011;1872;51.406;6.856;2023-03-23T15:47:50;3.17;;;2.97;;
3712;SDS011;1872;51.406;6.856;2023-03-23T15:52:50;3.87;;;3.57;;
3712;SDS011;1872;51.406;6.856;2023-03-23T15:55:18;4.13;;;2.90;;
3712;SDS011;1872;51.406;6.856;2023-03-23T15:57:46;3.47;;;2.80;;
3712;SDS011;1872;51.406;6.856;2023-03-23T16:00:14;3.77;;;2.97;;
3712;SDS011;1872;51.406;6.856;2023-03-23T16:02:41;5.73;;;3.30;;
3712;SDS011;1872;51.406;6.856;2023-03-23T16:05:09;4.77;;;3.17;;
3712;SDS011;1872;51.406;6.856;2023-03-23T16:07:38;3.67;;;3.33;;
3712;SDS011;1872;51.406;6.856;2023-03-23T16:10:06;7.73;;;3.80;;
3712;SDS011;1872;51.406;6.856;2023-03-23T16:12:35;4.40;;;3.33;;
3712;SDS011;1872;51.406;6.856;2023-03-23T16:15:01;3.30;;;3.00;;
3712;SDS011;1872;51.406;6.856;2023-03-23T16:17:33;3.90;;;3.47;;
3712;SDS011;1872;51.406;6.856;2023-03-23T16:19:59;5.00;;;3.03;;
3712;SDS011;1872;51.406;6.856;2023-03-23T16:22:25;3.77;;;2.93;;
3712;SDS011;1872;51.406;6.856;2023-03-23T16:24:51;3.87;;;3.47;;
3712;SDS011;1872;51.406;6.856;2023-03-23T16:27:18;8.93;;;3.70;;
3712;SDS011;1872;51.406;6.856;2023-03-23T16:29:45;4.47;;;3.37;;
3712;SDS011;1872;51.406;6.856;2023-03-23T16:32:11;9.07;;;4.40;;
3712;SDS011;1872;51.406;6.856;2023-03-23T16:34:36;3.83;;;3.33;;
3712;SDS011;1872;51.406;6.856;2023-03-23T16:37:03;6.80;;;3.90;;
3712;SDS011;1872;51.406;6.856;2023-03-23T16:39:30;3.10;;;2.80;;
3712;SDS011;1872;51.406;6.856;2023-03-23T16:41:56;4.43;;;2.97;;
3712;SDS011;1872;51.406;6.856;2023-03-23T16:44:22;3.43;;;3.13;;
3712;SDS011;1872;51.406;6.856;2023-03-23T16:46:47;4.10;;;3.07;;
3712;SDS011;1872;51.406;6.856;2023-03-23T16:49:13;3.70;;;3.40;;
3712;SDS011;1872;51.406;6.856;2023-03-23T16:51:39;5.03;;;4.20;;
3712;SDS011;1872;51.406;6.856;2023-03-23T16:54:05;5.20;;;3.57;;
3712;SDS011;1872;51.406;6.856;2023-03-23T16:56:33;4.73;;;3.40;;
3712;SDS011;1872;51.406;6.856;2023-03-23T16:59:00;4.53;;;3.53;;
3712;SDS011;1872;51.406;6.856;2023-03-23T17:01:25;3.60;;;3.30;;
3712;SDS011;1872;51.406;6.856;2023-03-23T17:03:51;4.70;;;3.07;;
3712;SDS011;1872;51.406;6.856;2023-03-23T17:06:18;4.23;;;3.83;;
3712;SDS011;1872;51.406;6.856;2023-03-23T17:08:44;5.10;;;3.10;;
3712;SDS011;1872;51.406;6.856;2023-03-23T17:11:09;7.80;;;3.43;;
3712;SDS011;1872;51.406;6.856;2023-03-23T17:13:36;4.23;;;3.33;;
3712;SDS011;1872;51.406;6.856;2023-03-23T17:16:02;4.43;;;3.80;;
3712;SDS011;1872;51.406;6.856;2023-03-23T17:18:28;3.90;;;3.50;;
3712;SDS011;1872;51.406;6.856;2023-03-23T17:20:54;4.37;;;3.27;;
3712;SDS011;1872;51.406;6.856;2023-03-23T17:23:20;6.27;;;4.30;;
3712;SDS011;1872;51.406;6.856;2023-03-23T17:25:46;6.20;;;4.03;;
3712;SDS011;1872;51.406;6.856;2023-03-23T17:28:12;5.27;;;3.20;;
3712;SDS011;1872;51.406;6.856;2023-03-23T17:30:39;3.53;;;3.23;;
3712;SDS011;1872;51.406;6.856;2023-03-23T17:33:06;3.80;;;3.20;;
3712;SDS011;1872;51.406;6.856;2023-03-23T17:35:32;5.93;;;3.30;;
3712;SDS011;1872;51.406;6.856;2023-03-23T17:37:58;5.70;;;3.90;;
3712;SDS011;1872;51.406;6.856;2023-03-23T17:40:23;3.53;;;3.00;;
3712;SDS011;1872;51.406;6.856;2023-03-23T17:42:49;4.30;;;3.23;;
3712;SDS011;1872;51.406;6.856;2023-03-23T17:45:15;3.27;;;2.83;;
3712;SDS011;1872;51.406;6.856;2023-03-23T17:47:41;5.97;;;3.70;;
3712;SDS011;1872;51.406;6.856;2023-03-23T17:50:07;3.10;;;2.87;;
3712;SDS011;1872;51.406;6.856;2023-03-23T17:52:33;3.23;;;2.90;;
3712;SDS011;1872;51.406;6.856;2023-03-23T17:54:58;3.47;;;2.87;;
3712;SDS011;1872;51.406;6.856;2023-03-23T17:57:24;3.90;;;2.70;;